createdAt,value
2018-04-14T00:01:59.013Z,94.19
2018-04-14T00:04:26.486Z,94.35
2018-04-14T00:06:53.942Z,94.67
2018-04-14T00:09:21.407Z,94.80
2018-04-14T00:11:48.882Z,94.88
2018-04-14T00:14:16.376Z,94.87
2018-04-14T00:16:43.886Z,95.11
2018-04-14T00:19:11.391Z,95.22
2018-04-14T00:21:38.873Z,95.36
2018-04-14T00:24:06.385Z,95.46
2018-04-14T00:26:33.871Z,95.62
2018-04-14T00:29:01.409Z,95.46
2018-04-14T00:31:28.903Z,95.35
2018-04-14T00:33:56.393Z,95.15
2018-04-14T00:36:23.911Z,95.15
2018-04-14T00:38:51.432Z,95.23
2018-04-14T00:41:18.937Z,95.08
2018-04-14T00:43:46.441Z,95.08
2018-04-14T00:46:13.944Z,95.31
2018-04-14T00:48:41.410Z,95.32
2018-04-14T00:51:08.902Z,95.33
2018-04-14T00:53:47.389Z,95.26
2018-04-14T00:56:14.878Z,95.36
2018-04-14T00:58:42.351Z,95.36
2018-04-14T01:01:09.851Z,95.48
2018-04-14T01:03:37.363Z,95.80
2018-04-14T01:06:04.859Z,95.93
2018-04-14T01:08:32.388Z,95.88
2018-04-14T01:10:59.887Z,96.04
2018-04-14T01:13:27.367Z,96.09
2018-04-14T01:15:54.872Z,96.17
2018-04-14T01:18:22.381Z,96.34
2018-04-14T01:20:50.023Z,96.48
2018-04-14T01:23:17.542Z,96.52
2018-04-14T01:25:45.133Z,96.50
2018-04-14T01:28:12.638Z,96.39
2018-04-14T01:30:40.207Z,96.43
2018-04-14T01:33:07.696Z,96.58
2018-04-14T01:35:35.171Z,96.65
2018-04-14T01:38:02.667Z,96.63
2018-04-14T01:40:30.141Z,96.66
2018-04-14T01:42:57.623Z,96.50
2018-04-14T01:45:25.100Z,96.42
2018-04-14T01:47:52.589Z,96.40
2018-04-14T01:50:20.121Z,96.50
2018-04-14T01:52:47.666Z,96.48
2018-04-14T01:55:15.164Z,96.44
2018-04-14T01:57:42.672Z,96.53
2018-04-14T02:00:10.168Z,96.64
2018-04-14T02:02:37.666Z,96.55
2018-04-14T02:05:05.178Z,96.51
2018-04-14T02:07:32.655Z,96.52
2018-04-14T02:10:00.140Z,96.58
2018-04-14T02:12:27.620Z,96.47
2018-04-14T02:14:55.244Z,96.53
2018-04-14T02:17:22.707Z,96.43
2018-04-14T02:19:50.175Z,96.54
2018-04-14T02:22:17.665Z,96.53
2018-04-14T02:24:45.124Z,96.57
2018-04-14T02:27:12.575Z,96.57
2018-04-14T02:29:40.089Z,96.53
2018-04-14T02:32:07.692Z,96.37
2018-04-14T02:34:35.239Z,96.41
2018-04-14T02:37:02.738Z,96.51
2018-04-14T02:39:30.192Z,96.46
2018-04-14T02:41:57.697Z,96.40
2018-04-14T02:44:25.194Z,96.25
2018-04-14T02:46:52.728Z,96.24
2018-04-14T02:49:20.272Z,96.08
2018-04-14T02:51:47.751Z,96.17
2018-04-14T02:54:15.304Z,95.92
2018-04-14T02:56:42.860Z,95.91
2018-04-14T02:59:10.433Z,95.98
2018-04-14T03:01:38.007Z,95.94
2018-04-14T03:04:05.497Z,95.82
2018-04-14T03:06:32.997Z,95.75
2018-04-14T03:09:00.477Z,95.75
2018-04-14T03:11:27.955Z,95.69
2018-04-14T03:13:55.490Z,95.63
2018-04-14T03:16:22.984Z,95.65
2018-04-14T03:18:50.517Z,95.51
2018-04-14T03:21:17.980Z,95.57
2018-04-14T03:23:45.506Z,95.66
2018-04-14T03:26:13.015Z,95.76
2018-04-14T03:28:40.498Z,95.76
2018-04-14T03:31:08.047Z,95.73
2018-04-14T03:33:35.559Z,95.83
2018-04-14T03:36:03.071Z,95.98
2018-04-14T03:38:30.527Z,95.90
2018-04-14T03:40:57.985Z,96.00
2018-04-14T03:43:25.499Z,96.17
2018-04-14T03:45:52.989Z,96.20
2018-04-14T03:48:20.449Z,96.18
2018-04-14T03:50:47.958Z,96.22
2018-04-14T03:53:15.449Z,96.16
2018-04-14T03:55:42.964Z,96.08
2018-04-14T03:58:10.466Z,95.69
2018-04-14T04:00:37.987Z,95.20
2018-04-14T04:03:05.489Z,95.08
2018-04-14T04:05:32.977Z,94.73
2018-04-14T04:08:00.447Z,94.84
2018-04-14T04:10:27.976Z,94.76
2018-04-14T04:12:55.477Z,94.65
2018-04-14T04:15:22.949Z,94.66
2018-04-14T04:17:50.428Z,94.85
2018-04-14T04:23:36.494Z,94.61
2018-04-14T04:26:03.963Z,94.72
2018-04-14T04:28:31.454Z,94.67
2018-04-14T04:30:58.948Z,94.61
2018-04-14T04:33:26.412Z,94.36
2018-04-14T04:35:53.868Z,94.32
2018-04-14T04:38:21.393Z,94.21
2018-04-14T04:40:48.896Z,94.57
2018-04-14T04:43:16.356Z,94.64
2018-04-14T04:45:43.869Z,94.52
2018-04-14T04:48:11.337Z,94.99
2018-04-14T04:50:38.833Z,95.16
2018-04-14T04:53:06.372Z,95.07
2018-04-14T04:55:33.847Z,95.10
2018-04-14T04:58:01.377Z,95.12
2018-04-14T05:00:28.880Z,95.19
2018-04-14T05:02:56.348Z,95.14
2018-04-14T05:05:23.903Z,94.73
2018-04-14T05:07:51.420Z,94.45
2018-04-14T05:10:18.916Z,94.59
2018-04-14T05:12:46.375Z,94.66
2018-04-14T05:15:13.876Z,94.59
2018-04-14T05:17:41.368Z,94.67
2018-04-14T05:20:08.955Z,94.43
2018-04-14T05:22:36.510Z,94.47
2018-04-14T05:25:04.000Z,94.45
2018-04-14T05:27:31.472Z,94.24
2018-04-14T05:29:58.968Z,94.20
2018-04-14T05:32:26.496Z,94.25
2018-04-14T05:34:53.961Z,94.35
2018-04-14T05:37:21.458Z,94.07
2018-04-14T05:39:48.988Z,93.96
2018-04-14T05:42:16.485Z,94.10
2018-04-14T05:44:44.004Z,93.67
2018-04-14T05:47:11.475Z,93.58
2018-04-14T05:49:38.923Z,93.91
2018-04-14T05:52:06.391Z,94.23
2018-04-14T05:54:33.847Z,94.46
2018-04-14T05:57:01.335Z,94.59
2018-04-14T05:59:28.787Z,94.31
2018-04-14T06:01:56.240Z,94.13
2018-04-14T06:04:23.705Z,94.11
2018-04-14T06:06:51.202Z,94.11
2018-04-14T06:09:18.681Z,93.98
2018-04-14T06:11:46.151Z,93.54
2018-04-14T06:14:13.737Z,92.92
2018-04-14T06:16:41.216Z,92.30
2018-04-14T06:19:08.669Z,92.41
2018-04-14T06:21:36.158Z,92.92
2018-04-14T06:24:03.689Z,92.83
2018-04-14T06:26:31.177Z,92.62
2018-04-14T06:28:58.739Z,92.61
2018-04-14T06:31:26.235Z,92.78
2018-04-14T06:33:53.758Z,93.11
2018-04-14T06:36:21.246Z,93.44
2018-04-14T06:38:48.737Z,93.37
2018-04-14T06:41:16.187Z,93.20
2018-04-14T06:43:43.717Z,92.94
2018-04-14T06:46:11.207Z,92.31
2018-04-14T06:48:38.735Z,92.28
2018-04-14T06:51:06.224Z,92.20
2018-04-14T06:53:33.710Z,92.06
2018-04-14T06:56:01.171Z,92.07
2018-04-14T06:58:28.664Z,91.30
2018-04-14T07:00:56.192Z,91.35
2018-04-14T07:03:23.648Z,90.62
2018-04-14T07:05:51.168Z,89.99
2018-04-14T07:08:18.627Z,89.50
2018-04-14T07:10:46.133Z,89.20
2018-04-14T07:13:13.688Z,89.15
2018-04-14T07:15:41.154Z,89.29
2018-04-14T07:18:08.670Z,89.03
2018-04-14T07:20:36.161Z,89.29
2018-04-14T07:23:03.638Z,88.34
2018-04-14T07:25:31.184Z,88.25
2018-04-14T07:27:58.682Z,88.05
2018-04-14T07:30:26.238Z,87.04
2018-04-14T07:32:53.753Z,86.97
2018-04-14T07:35:21.266Z,87.42
2018-04-14T07:37:48.768Z,86.34
2018-04-14T07:40:16.812Z,84.80
2018-04-14T07:42:44.278Z,84.60
2018-04-14T07:45:11.778Z,84.68
2018-04-14T07:47:39.347Z,83.79
2018-04-14T07:50:06.831Z,83.16
2018-04-14T07:52:34.362Z,82.55
2018-04-14T07:55:01.941Z,81.84
2018-04-14T07:57:29.407Z,81.27
2018-04-14T07:59:56.905Z,79.57
2018-04-14T08:02:24.401Z,79.60
2018-04-14T08:04:51.883Z,79.92
2018-04-14T08:07:19.358Z,80.06
2018-04-14T08:09:46.820Z,80.57
2018-04-14T08:12:14.309Z,80.23
2018-04-14T08:14:41.828Z,80.71
2018-04-14T08:17:09.361Z,80.14
2018-04-14T08:19:36.847Z,79.96
2018-04-14T08:22:04.329Z,80.43
2018-04-14T08:24:31.910Z,80.72
2018-04-14T08:26:59.421Z,81.42
2018-04-14T08:29:26.926Z,80.91
2018-04-14T08:31:54.413Z,80.90
2018-04-14T08:34:21.928Z,80.37
2018-04-14T08:36:49.488Z,79.28
2018-04-14T08:39:17.075Z,78.92
2018-04-14T08:41:44.577Z,76.37
2018-04-14T08:44:12.190Z,75.89
2018-04-14T08:46:39.687Z,75.47
2018-04-14T08:49:07.181Z,75.32
2018-04-14T08:51:34.695Z,75.23
2018-04-14T08:54:02.196Z,74.99
2018-04-14T08:56:30.636Z,72.74
2018-04-14T08:58:58.149Z,72.55
2018-04-14T09:01:25.619Z,72.62
2018-04-14T09:03:53.110Z,72.05
2018-04-14T09:06:20.626Z,70.58
2018-04-14T09:08:48.093Z,72.44
2018-04-14T09:11:15.583Z,73.95
2018-04-14T09:13:43.072Z,73.95
2018-04-14T09:16:10.682Z,75.17
2018-04-14T09:18:38.335Z,75.11
2018-04-14T09:21:05.868Z,74.78
2018-04-14T09:23:33.337Z,74.93
2018-04-14T09:26:00.866Z,74.59
2018-04-14T09:28:28.330Z,74.74
2018-04-14T09:30:55.900Z,72.95
2018-04-14T09:33:23.422Z,73.01
2018-04-14T09:35:50.932Z,72.74
2018-04-14T09:38:18.436Z,71.61
2018-04-14T09:40:45.937Z,70.23
2018-04-14T09:43:13.438Z,68.17
2018-04-14T09:45:40.947Z,67.76
2018-04-14T09:48:08.481Z,67.57
2018-04-14T09:50:35.947Z,66.69
2018-04-14T09:53:03.400Z,67.05
2018-04-14T09:55:30.995Z,67.45
2018-04-14T09:57:58.480Z,66.91
2018-04-14T10:00:27.826Z,67.66
2018-04-14T10:03:00.410Z,66.46
2018-04-14T10:05:27.827Z,66.19
2018-04-14T10:07:55.308Z,66.11
2018-04-14T10:10:22.859Z,65.13
2018-04-14T10:12:50.283Z,62.98
2018-04-14T10:15:17.751Z,62.85
2018-04-14T10:17:45.257Z,62.53
2018-04-14T10:20:12.799Z,62.35
2018-04-14T10:22:40.312Z,61.63
2018-04-14T10:25:07.823Z,61.18
2018-04-14T10:27:35.366Z,61.03
2018-04-14T10:30:02.834Z,60.88
2018-04-14T10:32:30.354Z,60.34
2018-04-14T10:34:57.823Z,59.75
2018-04-14T10:37:25.322Z,59.37
2018-04-14T10:39:52.835Z,59.33
2018-04-14T10:42:20.303Z,59.24
2018-04-14T10:44:47.786Z,59.38
2018-04-14T10:47:15.290Z,59.42
2018-04-14T10:49:42.779Z,58.26
2018-04-14T10:52:10.317Z,57.88
2018-04-14T10:54:37.859Z,58.23
2018-04-14T10:57:05.371Z,57.65
2018-04-14T10:59:32.927Z,57.86
2018-04-14T11:02:00.432Z,57.54
2018-04-14T11:04:27.901Z,57.42
2018-04-14T11:06:55.488Z,58.41
2018-04-14T11:09:22.990Z,58.25
2018-04-14T11:11:50.572Z,58.30
2018-04-14T11:14:18.036Z,57.25
2018-04-14T11:16:45.632Z,56.50
2018-04-14T11:19:13.117Z,55.25
2018-04-14T11:21:40.607Z,55.14
2018-04-14T11:24:08.116Z,54.98
2018-04-14T11:26:35.757Z,55.03
2018-04-14T11:29:03.226Z,55.58
2018-04-14T11:31:30.715Z,56.76
2018-04-14T11:33:58.324Z,57.37
2018-04-14T11:36:25.850Z,57.95
2018-04-14T11:38:53.325Z,57.14
2018-04-14T11:41:20.821Z,57.19
2018-04-14T11:43:48.305Z,56.30
2018-04-14T11:46:15.781Z,56.40
2018-04-14T11:48:43.313Z,56.44
2018-04-14T11:51:10.805Z,55.59
2018-04-14T11:53:38.315Z,55.99
2018-04-14T11:56:05.842Z,56.65
2018-04-14T11:58:33.356Z,57.42
2018-04-14T12:01:00.864Z,58.16
2018-04-14T12:03:28.421Z,58.66
2018-04-14T12:05:55.871Z,59.04
2018-04-14T12:08:23.445Z,60.26
2018-04-14T12:10:50.982Z,61.20
2018-04-14T12:13:18.472Z,66.27
2018-04-14T12:15:45.972Z,70.54
2018-04-14T12:18:13.447Z,74.96
2018-04-14T12:20:40.908Z,80.64
2018-04-14T12:23:08.465Z,83.84
2018-04-14T12:25:35.962Z,86.33
2018-04-14T12:28:03.418Z,87.67
2018-04-14T12:30:30.908Z,88.24
2018-04-14T12:32:58.396Z,89.14
2018-04-14T12:35:25.899Z,89.51
2018-04-14T12:37:59.884Z,89.64
2018-04-14T12:40:27.374Z,90.57
2018-04-14T12:42:54.864Z,90.28
2018-04-14T12:45:22.375Z,90.37
2018-04-14T12:47:49.875Z,90.40
2018-04-14T12:50:17.376Z,89.52
2018-04-14T12:52:44.958Z,89.27
2018-04-14T12:55:12.489Z,88.54
2018-04-14T12:57:39.999Z,88.15
2018-04-14T13:00:07.499Z,88.03
2018-04-14T13:02:35.004Z,88.57
2018-04-14T13:05:02.528Z,89.23
2018-04-14T13:07:30.097Z,89.22
2018-04-14T13:09:57.588Z,88.28
2018-04-14T13:12:25.056Z,87.84
2018-04-14T13:14:52.598Z,87.24
2018-04-14T13:17:20.064Z,87.90
2018-04-14T13:19:47.552Z,87.76
2018-04-14T13:22:15.075Z,88.89
2018-04-14T13:24:42.613Z,88.54
2018-04-14T13:27:10.104Z,87.66
2018-04-14T13:29:37.613Z,85.94
2018-04-14T13:32:05.063Z,85.73
2018-04-14T13:34:32.540Z,83.76
2018-04-14T13:37:00.056Z,83.03
2018-04-14T13:39:27.562Z,82.12
2018-04-14T13:41:55.061Z,80.79
2018-04-14T13:44:22.524Z,79.99
2018-04-14T13:46:49.976Z,79.99
2018-04-14T13:49:17.444Z,80.09
2018-04-14T13:51:45.018Z,79.81
2018-04-14T13:54:12.510Z,78.67
2018-04-14T13:56:40.013Z,77.90
2018-04-14T13:59:07.492Z,78.15
2018-04-14T14:01:34.984Z,77.56
2018-04-14T14:04:02.514Z,77.83
2018-04-14T14:06:29.980Z,77.03
2018-04-14T14:08:57.444Z,75.85
2018-04-14T14:11:24.950Z,74.46
2018-04-14T14:13:52.446Z,74.29
2018-04-14T14:16:19.920Z,73.04
2018-04-14T14:18:47.441Z,71.72
2018-04-14T14:21:14.937Z,70.99
2018-04-14T14:23:42.438Z,71.42
2018-04-14T14:26:09.919Z,70.48
2018-04-14T14:28:37.421Z,70.14
2018-04-14T14:31:04.914Z,68.80
2018-04-14T14:33:32.411Z,68.66
2018-04-14T14:35:59.882Z,67.43
2018-04-14T14:38:27.389Z,66.78
2018-04-14T14:40:54.914Z,65.89
2018-04-14T14:43:22.540Z,65.89
2018-04-14T14:45:50.091Z,66.32
2018-04-14T14:48:17.567Z,66.29
2018-04-14T14:50:45.044Z,66.15
2018-04-14T14:53:12.517Z,65.48
2018-04-14T14:55:39.988Z,65.02
2018-04-14T14:58:07.508Z,64.41
2018-04-14T15:00:35.074Z,66.30
2018-04-14T15:03:02.573Z,66.74
2018-04-14T15:05:30.085Z,67.06
2018-04-14T15:07:57.555Z,67.04
2018-04-14T15:10:25.041Z,65.06
2018-04-14T15:12:52.540Z,63.96
2018-04-14T15:15:20.061Z,62.66
2018-04-14T15:17:47.587Z,62.71
2018-04-14T15:20:15.074Z,61.73
2018-04-14T15:22:42.572Z,62.21
2018-04-14T15:25:10.064Z,62.08
2018-04-14T15:27:37.553Z,61.50
2018-04-14T15:30:05.071Z,60.89
2018-04-14T15:32:32.643Z,61.29
2018-04-14T15:35:00.221Z,61.32
2018-04-14T15:37:27.703Z,61.05
2018-04-14T15:39:55.154Z,61.05
2018-04-14T15:42:22.679Z,61.62
2018-04-14T15:44:50.161Z,60.97
2018-04-14T15:47:17.670Z,59.26
2018-04-14T15:49:45.203Z,59.63
2018-04-14T15:52:12.674Z,60.31
2018-04-14T15:54:40.146Z,60.61
2018-04-14T15:57:07.667Z,61.17
2018-04-14T15:59:35.268Z,61.59
2018-04-14T16:02:02.788Z,58.40
2018-04-14T16:04:30.333Z,57.74
2018-04-14T16:06:57.910Z,57.52
2018-04-14T16:09:25.596Z,57.23
2018-04-14T16:11:53.039Z,56.41
2018-04-14T16:14:20.565Z,56.47
2018-04-14T16:16:48.089Z,55.68
2018-04-14T16:19:15.575Z,56.27
2018-04-14T16:21:43.254Z,55.24
2018-04-14T16:24:10.756Z,55.87
2018-04-14T16:26:38.289Z,55.97
2018-04-14T16:29:05.837Z,56.34
2018-04-14T16:31:33.407Z,56.06
2018-04-14T16:34:00.964Z,56.45
2018-04-14T16:36:28.495Z,55.97
2018-04-14T16:38:55.998Z,57.00
2018-04-14T16:41:23.484Z,55.20
2018-04-14T16:43:50.980Z,55.82
2018-04-14T16:46:18.453Z,55.85
2018-04-14T16:48:46.244Z,56.84
2018-04-14T16:51:14.712Z,57.57
2018-04-14T16:53:42.456Z,58.21
2018-04-14T16:56:10.650Z,59.22
2018-04-14T16:58:38.533Z,58.91
2018-04-14T17:01:06.757Z,59.19
2018-04-14T17:03:34.251Z,60.06
2018-04-14T17:06:02.579Z,59.71
2018-04-14T17:08:30.085Z,60.11
2018-04-14T17:10:57.818Z,60.37
2018-04-14T17:13:25.991Z,61.66
2018-04-14T17:15:53.961Z,61.39
2018-04-14T17:18:21.705Z,61.16
2018-04-14T17:20:49.387Z,61.64
2018-04-14T17:23:17.797Z,61.88
2018-04-14T17:25:45.516Z,61.11
2018-04-14T17:28:13.000Z,60.98
2018-04-14T17:30:40.481Z,60.96
2018-04-14T17:33:07.989Z,61.21
2018-04-14T17:35:35.484Z,62.62
2018-04-14T17:38:02.995Z,62.44
2018-04-14T17:40:30.468Z,62.81
2018-04-14T17:42:58.023Z,63.08
2018-04-14T17:45:25.526Z,63.02
2018-04-14T17:47:52.990Z,63.61
2018-04-14T17:50:20.480Z,64.18
2018-04-14T17:52:47.959Z,64.75
2018-04-14T17:55:15.433Z,64.72
2018-04-14T17:57:42.977Z,65.26
2018-04-14T18:00:10.519Z,66.40
2018-04-14T18:02:38.010Z,66.88
2018-04-14T18:05:05.530Z,67.44
2018-04-14T18:07:33.187Z,67.86
2018-04-14T18:10:00.682Z,67.33
2018-04-14T18:12:28.160Z,67.28
2018-04-14T18:14:55.640Z,67.48
2018-04-14T18:17:23.196Z,68.23
2018-04-14T18:19:50.659Z,70.10
2018-04-14T18:22:18.191Z,70.96
2018-04-14T18:24:45.731Z,71.32
2018-04-14T18:27:13.213Z,72.12
2018-04-14T18:29:40.673Z,72.84
2018-04-14T18:32:08.148Z,73.08
2018-04-14T18:34:35.606Z,73.72
2018-04-14T18:37:03.082Z,73.82
2018-04-14T18:39:30.558Z,73.78
2018-04-14T18:41:58.136Z,74.00
2018-04-14T18:44:25.710Z,74.09
2018-04-14T18:46:53.221Z,74.41
2018-04-14T18:49:20.810Z,74.29
2018-04-14T18:51:48.280Z,74.40
2018-04-14T18:54:15.900Z,74.38
2018-04-14T18:56:43.398Z,74.45
2018-04-14T18:59:10.915Z,74.52
2018-04-14T19:01:38.442Z,74.62
2018-04-14T19:04:05.953Z,74.97
2018-04-14T19:06:33.541Z,75.01
2018-04-14T19:09:01.067Z,75.26
2018-04-14T19:11:28.659Z,75.59
2018-04-14T19:13:56.176Z,75.68
2018-04-14T19:16:23.706Z,75.99
2018-04-14T19:18:51.193Z,76.03
2018-04-14T19:21:18.671Z,76.29
2018-04-14T19:23:46.202Z,76.34
2018-04-14T19:26:13.753Z,76.62
2018-04-14T19:28:41.255Z,77.03
2018-04-14T19:31:08.733Z,77.42
2018-04-14T19:33:36.209Z,77.66
2018-04-14T19:36:03.715Z,77.93
2018-04-14T19:38:31.232Z,78.45
2018-04-14T19:40:58.805Z,78.73
2018-04-14T19:43:26.319Z,79.05
2018-04-14T19:45:53.839Z,79.19
2018-04-14T19:48:21.459Z,79.21
2018-04-14T19:50:48.971Z,79.93
2018-04-14T19:53:16.519Z,79.99
2018-04-14T19:55:44.018Z,80.30
2018-04-14T19:58:11.480Z,80.27
2018-04-14T20:00:39.060Z,80.53
2018-04-14T20:03:06.554Z,80.43
2018-04-14T20:05:34.026Z,80.41
2018-04-14T20:08:01.575Z,80.63
2018-04-14T20:10:29.168Z,80.54
2018-04-14T20:12:56.635Z,80.57
2018-04-14T20:15:24.097Z,80.59
2018-04-14T20:17:51.577Z,80.59
2018-04-14T20:20:19.067Z,80.55
2018-04-14T20:22:46.668Z,81.09
2018-04-14T20:25:14.203Z,80.86
2018-04-14T20:27:41.718Z,80.84
2018-04-14T20:30:09.260Z,80.99
2018-04-14T20:32:36.761Z,80.76
2018-04-14T20:35:04.284Z,80.99
2018-04-14T20:37:31.812Z,81.25
2018-04-14T20:39:59.268Z,81.60
2018-04-14T20:42:26.761Z,81.75
2018-04-14T20:44:54.301Z,81.86
2018-04-14T20:47:21.802Z,81.97
2018-04-14T20:49:49.290Z,82.23
2018-04-14T20:52:16.766Z,82.39
2018-04-14T20:54:44.296Z,82.63
2018-04-14T20:57:11.881Z,82.90
2018-04-14T20:59:39.359Z,83.24
2018-04-14T21:02:06.861Z,83.47
2018-04-14T21:04:34.403Z,83.63
2018-04-14T21:07:01.950Z,83.75
2018-04-14T21:09:29.476Z,84.04
2018-04-14T21:11:56.941Z,84.40
2018-04-14T21:14:24.491Z,84.53
2018-04-14T21:16:51.976Z,84.82
2018-04-14T21:19:19.448Z,85.09
2018-04-14T21:21:46.953Z,85.38
2018-04-14T21:24:14.489Z,85.60
2018-04-14T21:26:42.043Z,85.77
2018-04-14T21:29:09.644Z,86.02
2018-04-14T21:31:37.133Z,86.03
2018-04-14T21:34:04.657Z,86.21
2018-04-14T21:36:32.143Z,86.47
2018-04-14T21:38:59.632Z,86.60
2018-04-14T21:41:27.136Z,86.63
2018-04-14T21:43:54.660Z,87.06
2018-04-14T21:46:22.120Z,87.28
2018-04-14T21:48:49.609Z,87.54
2018-04-14T21:51:17.124Z,87.75
2018-04-14T21:53:44.607Z,88.06
2018-04-14T21:56:12.117Z,87.92
2018-04-14T21:58:39.636Z,88.38
2018-04-14T22:01:07.202Z,88.68
2018-04-14T22:03:34.705Z,89.00
2018-04-14T22:06:02.222Z,89.32
2018-04-14T22:08:29.695Z,89.61
2018-04-14T22:10:57.159Z,89.80
2018-04-14T22:13:24.647Z,89.92
2018-04-14T22:15:52.160Z,89.92
2018-04-14T22:18:19.668Z,90.20
2018-04-14T22:20:47.168Z,90.07
2018-04-14T22:23:14.661Z,89.93
2018-04-14T22:25:42.374Z,89.66
2018-04-14T22:28:09.902Z,89.81
2018-04-14T22:30:37.394Z,89.89
2018-04-14T22:33:04.919Z,89.68
2018-04-14T22:35:32.404Z,89.73
2018-04-14T22:37:59.972Z,90.24
2018-04-14T22:40:27.473Z,90.52
2018-04-14T22:42:54.981Z,90.86
2018-04-14T22:45:22.512Z,91.16
2018-04-14T22:47:50.025Z,91.15
2018-04-14T22:50:17.494Z,91.36
2018-04-14T22:52:45.012Z,91.59
2018-04-14T22:55:12.471Z,91.60
2018-04-14T22:57:39.975Z,91.59
2018-04-14T23:00:07.520Z,91.64
2018-04-14T23:02:35.071Z,91.72
2018-04-14T23:05:02.546Z,91.72
2018-04-14T23:07:30.169Z,91.63
2018-04-14T23:09:57.643Z,91.64
2018-04-14T23:12:25.225Z,91.86
2018-04-14T23:14:52.730Z,92.04
2018-04-14T23:17:20.294Z,92.12
2018-04-14T23:19:47.757Z,92.23
2018-04-14T23:22:15.281Z,92.36
2018-04-14T23:24:42.755Z,92.48
2018-04-14T23:27:10.253Z,92.46
2018-04-14T23:29:37.772Z,92.42
2018-04-14T23:32:05.307Z,92.34
2018-04-14T23:34:32.788Z,92.28
2018-04-14T23:37:00.327Z,92.36
2018-04-14T23:39:27.801Z,92.37
2018-04-14T23:41:55.346Z,92.31
2018-04-14T23:44:22.872Z,92.25
2018-04-14T23:46:50.335Z,92.17
2018-04-14T23:49:17.809Z,92.15
2018-04-14T23:51:45.272Z,92.25
2018-04-14T23:54:12.747Z,92.36
2018-04-14T23:56:40.341Z,92.28
2018-04-14T23:59:07.862Z,92.33
